createdAt,value
2022-10-13T00:01:08.293Z,9.63
2022-10-13T00:03:35.820Z,9.63
2022-10-13T00:06:05.584Z,10.73
2022-10-13T00:08:33.047Z,10.57
2022-10-13T00:11:00.831Z,10.77
2022-10-13T00:13:28.449Z,11.33
2022-10-13T00:15:55.875Z,9.87
2022-10-13T00:18:23.325Z,9.43
2022-10-13T00:20:50.817Z,10.20
2022-10-13T00:23:18.338Z,11.27
2022-10-13T00:25:46.717Z,11.00
2022-10-13T00:28:15.376Z,11.60
2022-10-13T00:30:42.959Z,11.83
2022-10-13T00:33:11.044Z,9.27
2022-10-13T00:35:43.061Z,10.33
2022-10-13T00:38:10.633Z,11.07
2022-10-13T00:40:48.124Z,10.63
2022-10-13T00:43:24.208Z,11.47
2022-10-13T00:45:52.411Z,10.10
2022-10-13T00:48:21.617Z,11.07
2022-10-13T00:50:49.245Z,10.30
2022-10-13T00:53:18.907Z,10.60
2022-10-13T00:55:46.728Z,9.87
2022-10-13T00:58:16.435Z,9.90
2022-10-13T01:00:45.685Z,10.23
2022-10-13T01:03:13.230Z,10.53
2022-10-13T01:05:41.771Z,10.87
2022-10-13T01:08:10.512Z,10.00
2022-10-13T01:10:53.395Z,11.00
2022-10-13T01:13:24.141Z,10.77
2022-10-13T01:15:54.568Z,9.63
2022-10-13T01:18:21.966Z,10.67
2022-10-13T01:20:58.365Z,10.40
2022-10-13T01:23:34.871Z,10.50
2022-10-13T01:26:17.613Z,10.57
2022-10-13T01:28:47.988Z,10.53
2022-10-13T01:31:18.265Z,9.27
2022-10-13T01:34:05.948Z,10.70
2022-10-13T01:36:53.697Z,11.27
2022-10-13T01:39:29.181Z,10.23
2022-10-13T01:42:01.868Z,10.80
2022-10-13T01:44:33.444Z,10.90
2022-10-13T01:47:01.888Z,11.60
2022-10-13T01:49:31.688Z,9.47
2022-10-13T01:52:04.065Z,9.33
2022-10-13T01:54:33.063Z,10.10
2022-10-13T01:57:00.558Z,10.57
2022-10-13T01:59:30.093Z,10.73
2022-10-13T02:02:06.854Z,10.17
2022-10-13T02:04:34.308Z,9.83
2022-10-13T02:07:04.757Z,10.40
2022-10-13T02:09:32.343Z,10.13
2022-10-13T02:12:03.018Z,10.57
2022-10-13T02:14:32.973Z,10.43
2022-10-13T02:17:02.188Z,9.73
2022-10-13T02:19:30.302Z,9.97
2022-10-13T02:21:58.646Z,9.37
2022-10-13T02:24:26.140Z,9.53
2022-10-13T02:26:53.839Z,9.57
2022-10-13T02:29:21.668Z,10.40
2022-10-13T02:31:49.135Z,10.00
2022-10-13T02:34:17.109Z,10.10
2022-10-13T02:36:44.531Z,10.40
2022-10-13T02:39:12.019Z,9.57
2022-10-13T02:41:39.568Z,10.13
2022-10-13T02:44:07.087Z,9.23
2022-10-13T02:46:34.951Z,9.43
2022-10-13T02:49:02.624Z,9.10
2022-10-13T02:51:30.591Z,9.33
2022-10-13T02:53:58.199Z,9.63
2022-10-13T02:56:25.666Z,9.43
2022-10-13T02:58:53.071Z,9.80
2022-10-13T03:01:20.528Z,9.60
2022-10-13T03:03:47.972Z,10.63
2022-10-13T03:06:15.645Z,9.33
2022-10-13T03:08:43.129Z,9.13
2022-10-13T03:11:10.603Z,10.77
2022-10-13T03:13:38.139Z,10.33
2022-10-13T03:16:05.862Z,9.17
2022-10-13T03:18:33.359Z,9.40
2022-10-13T03:21:01.764Z,10.00
2022-10-13T03:23:29.263Z,9.37
2022-10-13T03:25:56.732Z,9.73
2022-10-13T03:28:24.197Z,9.77
2022-10-13T03:30:52.089Z,10.20
2022-10-13T03:33:19.517Z,10.10
2022-10-13T03:35:47.210Z,9.50
2022-10-13T03:38:14.629Z,10.20
2022-10-13T03:40:42.055Z,9.47
2022-10-13T03:43:09.510Z,10.87
2022-10-13T03:45:37.094Z,9.80
2022-10-13T03:48:04.570Z,10.10
2022-10-13T03:50:32.034Z,10.23
2022-10-13T03:52:59.496Z,10.67
2022-10-13T03:55:27.095Z,9.97
2022-10-13T03:57:54.536Z,10.73
2022-10-13T04:00:22.158Z,10.67
2022-10-13T04:02:49.997Z,11.50
2022-10-13T04:05:18.551Z,10.63
2022-10-13T04:07:46.005Z,11.17
2022-10-13T04:10:13.673Z,11.40
2022-10-13T04:12:41.154Z,12.20
2022-10-13T04:15:09.048Z,10.77
2022-10-13T04:17:36.512Z,11.70
2022-10-13T04:20:04.208Z,11.27
2022-10-13T04:22:31.730Z,10.93
2022-10-13T04:24:59.230Z,10.30
2022-10-13T04:27:26.726Z,10.83
2022-10-13T04:29:54.244Z,11.43
2022-10-13T04:32:22.176Z,10.77
2022-10-13T04:34:49.915Z,10.50
2022-10-13T04:37:17.439Z,11.80
2022-10-13T04:39:44.904Z,12.07
2022-10-13T04:42:12.358Z,10.27
2022-10-13T04:44:39.852Z,10.50
2022-10-13T04:47:07.333Z,10.83
2022-10-13T04:49:36.409Z,11.50
2022-10-13T04:52:03.899Z,11.50
2022-10-13T04:54:31.536Z,11.30
2022-10-13T04:56:58.962Z,11.40
2022-10-13T04:59:26.554Z,10.80
2022-10-13T05:01:53.987Z,12.10
2022-10-13T05:04:21.513Z,12.67
2022-10-13T05:07:16.039Z,12.40
2022-10-13T05:09:36.449Z,11.10
2022-10-13T05:12:03.982Z,11.13
2022-10-13T05:14:32.963Z,11.00
2022-10-13T05:17:00.426Z,11.10
2022-10-13T05:19:28.105Z,10.93
2022-10-13T05:21:55.541Z,11.90
2022-10-13T05:24:23.061Z,10.77
2022-10-13T05:26:50.484Z,11.10
2022-10-13T05:29:18.001Z,11.30
2022-10-13T05:31:45.497Z,11.17
2022-10-13T05:34:13.050Z,10.60
2022-10-13T05:36:40.467Z,10.13
2022-10-13T05:39:08.077Z,11.53
2022-10-13T05:41:35.730Z,11.33
2022-10-13T05:44:05.225Z,12.53
2022-10-13T05:46:32.736Z,11.30
2022-10-13T05:49:00.214Z,11.33
2022-10-13T05:51:28.839Z,10.40
2022-10-13T05:54:01.405Z,10.93
2022-10-13T05:56:32.353Z,11.23
2022-10-13T05:59:01.527Z,11.23
2022-10-13T06:01:31.165Z,11.83
2022-10-13T06:04:01.828Z,12.23
2022-10-13T06:06:31.615Z,11.57
2022-10-13T06:09:00.529Z,11.23
2022-10-13T06:11:28.276Z,11.77
2022-10-13T06:13:55.781Z,10.50
2022-10-13T06:16:23.215Z,12.87
2022-10-13T06:18:50.715Z,11.27
2022-10-13T06:21:18.249Z,11.30
2022-10-13T06:23:45.831Z,11.80
2022-10-13T06:26:13.296Z,12.57
2022-10-13T06:28:40.968Z,12.40
2022-10-13T06:31:08.526Z,10.63
2022-10-13T06:33:35.999Z,11.40
2022-10-13T06:36:04.090Z,10.70
2022-10-13T06:38:32.313Z,11.97
2022-10-13T06:41:00.423Z,10.97
2022-10-13T06:43:34.538Z,11.47
2022-10-13T06:46:06.393Z,11.10
2022-10-13T06:48:33.902Z,10.50
2022-10-13T06:51:05.224Z,11.57
2022-10-13T06:53:32.859Z,11.43
2022-10-13T06:56:01.167Z,11.57
2022-10-13T06:58:28.835Z,11.40
2022-10-13T07:00:56.506Z,11.07
2022-10-13T07:03:24.336Z,10.33
2022-10-13T07:05:51.936Z,10.70
2022-10-13T07:08:19.841Z,9.77
2022-10-13T07:10:47.484Z,11.33
2022-10-13T07:13:15.392Z,10.87
2022-10-13T07:15:42.998Z,10.37
2022-10-13T07:18:13.922Z,11.00
2022-10-13T07:20:41.950Z,11.27
2022-10-13T07:23:09.370Z,11.10
2022-10-13T07:25:38.708Z,11.37
2022-10-13T07:28:06.276Z,12.13
2022-10-13T07:30:33.986Z,12.20
2022-10-13T07:33:01.463Z,11.53
2022-10-13T07:35:30.937Z,11.27
2022-10-13T07:37:58.634Z,11.07
2022-10-13T07:40:26.384Z,10.57
2022-10-13T07:42:53.910Z,10.67
2022-10-13T07:45:21.552Z,10.77
2022-10-13T07:47:49.064Z,10.63
2022-10-13T07:50:16.777Z,10.40
2022-10-13T07:52:44.515Z,11.60
2022-10-13T07:55:12.270Z,10.13
2022-10-13T07:57:39.864Z,10.20
2022-10-13T08:00:07.692Z,10.57
2022-10-13T08:02:35.185Z,10.00
2022-10-13T08:05:03.681Z,10.83
2022-10-13T08:07:31.177Z,10.20
2022-10-13T08:09:58.664Z,10.10
2022-10-13T08:12:26.328Z,10.13
2022-10-13T08:14:53.816Z,11.50
2022-10-13T08:17:21.792Z,10.80
2022-10-13T08:19:51.366Z,11.57
2022-10-13T08:22:18.883Z,11.17
2022-10-13T08:24:46.475Z,10.37
2022-10-13T08:27:18.180Z,9.90
2022-10-13T08:29:45.960Z,10.10
2022-10-13T08:32:13.461Z,11.30
2022-10-13T08:34:40.985Z,9.57
2022-10-13T08:37:13.567Z,10.40
2022-10-13T08:39:41.029Z,10.87
2022-10-13T08:42:15.991Z,10.27
2022-10-13T08:47:42.517Z,10.83
2022-10-13T08:50:22.441Z,10.47
2022-10-13T08:52:53.268Z,9.97
2022-10-13T08:55:27.102Z,10.20
2022-10-13T08:57:54.722Z,10.70
2022-10-13T09:00:22.315Z,10.00
2022-10-13T09:02:50.490Z,10.50
2022-10-13T09:05:45.680Z,9.57
2022-10-13T09:08:16.884Z,10.07
2022-10-13T09:10:51.043Z,9.70
2022-10-13T09:13:19.199Z,10.10
2022-10-13T09:15:48.109Z,9.97
2022-10-13T09:18:15.693Z,9.07
2022-10-13T09:20:43.169Z,9.67
2022-10-13T09:23:22.055Z,10.40
2022-10-13T09:25:50.993Z,9.90
2022-10-13T09:28:26.551Z,10.17
2022-10-13T09:31:01.855Z,9.47
2022-10-13T09:33:29.519Z,9.23
2022-10-13T09:35:56.971Z,10.57
2022-10-13T09:38:25.892Z,9.73
2022-10-13T09:41:14.119Z,9.87
2022-10-13T09:43:47.644Z,9.33
2022-10-13T09:46:26.180Z,9.00
2022-10-13T09:48:55.907Z,10.40
2022-10-13T09:51:37.999Z,9.53
2022-10-13T09:54:06.057Z,9.63
2022-10-13T09:56:39.099Z,10.70
2022-10-13T09:59:10.946Z,9.40
2022-10-13T10:01:41.059Z,9.87
2022-10-13T10:04:12.118Z,9.13
2022-10-13T10:06:41.097Z,9.93
2022-10-13T10:09:27.380Z,9.40
2022-10-13T10:11:58.357Z,9.50
2022-10-13T10:14:27.315Z,10.27
2022-10-13T10:17:13.204Z,10.00
2022-10-13T10:19:55.758Z,9.37
2022-10-13T10:22:23.199Z,9.70
2022-10-13T10:25:03.534Z,9.93
2022-10-13T10:27:31.117Z,10.30
2022-10-13T10:30:04.777Z,9.70
2022-10-13T10:32:32.480Z,9.63
2022-10-13T10:35:10.754Z,9.73
2022-10-13T10:37:54.350Z,9.10
2022-10-13T10:40:24.699Z,8.50
2022-10-13T10:43:13.025Z,8.83
2022-10-13T10:45:40.921Z,8.67
2022-10-13T10:48:20.466Z,9.67
2022-10-13T10:50:48.432Z,9.10
2022-10-13T10:53:19.110Z,8.63
2022-10-13T10:56:01.625Z,7.73
2022-10-13T10:58:41.109Z,6.63
2022-10-13T11:01:11.582Z,6.00
2022-10-13T11:03:41.973Z,5.33
2022-10-13T11:06:18.335Z,5.50
2022-10-13T11:08:48.190Z,5.47
2022-10-13T11:11:28.077Z,5.20
2022-10-13T11:14:06.581Z,5.07
2022-10-13T11:16:34.132Z,5.30
2022-10-13T11:19:04.473Z,5.57
2022-10-13T11:21:55.426Z,5.00
2022-10-13T11:24:35.273Z,5.17
2022-10-13T11:27:09.121Z,5.77
2022-10-13T11:29:45.554Z,5.10
2022-10-13T11:32:28.629Z,5.50
2022-10-13T11:35:05.272Z,4.87
2022-10-13T11:37:48.322Z,4.83
2022-10-13T11:40:42.110Z,4.87
2022-10-13T11:43:12.462Z,5.80
2022-10-13T11:45:39.974Z,4.53
2022-10-13T11:48:07.454Z,5.77
2022-10-13T11:50:37.830Z,5.33
2022-10-13T11:53:25.160Z,5.30
2022-10-13T11:55:53.669Z,5.67
2022-10-13T11:58:24.393Z,5.17
2022-10-13T12:01:01.259Z,5.60
2022-10-13T12:03:31.167Z,5.57
2022-10-13T12:06:01.351Z,5.70
2022-10-13T12:08:29.826Z,5.30
2022-10-13T12:10:57.824Z,6.33
2022-10-13T12:13:27.519Z,6.90
2022-10-13T12:16:10.022Z,6.03
2022-10-13T12:18:41.705Z,6.30
2022-10-13T12:21:17.460Z,6.13
2022-10-13T12:23:45.180Z,6.53
2022-10-13T12:26:20.277Z,6.40
2022-10-13T12:29:00.443Z,6.03
2022-10-13T12:31:29.423Z,6.43
2022-10-13T12:34:00.670Z,6.37
2022-10-13T12:36:32.423Z,7.17
2022-10-13T12:39:03.875Z,6.60
2022-10-13T12:41:32.808Z,6.20
2022-10-13T12:44:03.918Z,6.20
2022-10-13T12:46:39.648Z,6.70
2022-10-13T12:49:08.227Z,6.33
2022-10-13T12:51:37.380Z,7.07
2022-10-13T12:54:09.144Z,6.40
2022-10-13T12:56:36.656Z,6.20
2022-10-13T12:59:04.376Z,5.43
2022-10-13T13:01:33.342Z,6.40
2022-10-13T13:04:31.270Z,6.10
2022-10-13T13:07:00.159Z,5.73
2022-10-13T13:09:30.644Z,5.47
2022-10-13T13:12:05.347Z,5.83
2022-10-13T13:14:35.766Z,6.33
2022-10-13T13:17:04.365Z,5.67
2022-10-13T13:19:32.627Z,5.40
2022-10-13T13:22:00.435Z,5.87
2022-10-13T13:24:39.449Z,5.60
2022-10-13T13:27:28.406Z,6.30
2022-10-13T13:29:56.530Z,6.07
2022-10-13T13:32:25.389Z,6.20
2022-10-13T13:34:52.880Z,6.37
2022-10-13T13:37:36.113Z,5.90
2022-10-13T13:40:05.059Z,5.83
2022-10-13T13:42:33.006Z,7.07
2022-10-13T13:45:00.566Z,6.20
2022-10-13T13:47:28.974Z,6.70
2022-10-13T13:49:57.218Z,7.43
2022-10-13T13:52:25.445Z,7.60
2022-10-13T13:54:53.101Z,7.00
2022-10-13T13:57:21.156Z,7.50
2022-10-13T13:59:49.236Z,7.10
2022-10-13T14:02:18.321Z,6.90
2022-10-13T14:04:46.439Z,7.03
2022-10-13T14:07:14.463Z,7.10
2022-10-13T14:09:44.727Z,7.30
2022-10-13T14:12:15.651Z,7.80
2022-10-13T14:14:46.477Z,7.20
2022-10-13T14:17:14.238Z,7.53
2022-10-13T14:19:42.215Z,8.57
2022-10-13T14:22:10.078Z,7.87
2022-10-13T14:24:37.707Z,8.70
2022-10-13T14:27:07.533Z,7.80
2022-10-13T14:29:35.377Z,7.60
2022-10-13T14:32:03.198Z,8.20
2022-10-13T14:34:30.790Z,8.53
2022-10-13T14:36:58.621Z,8.03
2022-10-13T14:39:26.161Z,8.17
2022-10-13T14:41:53.656Z,7.40
2022-10-13T14:44:21.130Z,7.33
2022-10-13T14:46:48.659Z,7.10
2022-10-13T14:49:16.237Z,8.10
2022-10-13T14:51:50.624Z,8.50
2022-10-13T14:57:28.897Z,8.90
2022-10-13T15:00:00.897Z,8.47
2022-10-13T15:02:29.546Z,7.80
2022-10-13T15:04:57.134Z,7.90
2022-10-13T15:07:24.661Z,8.60
2022-10-13T15:10:04.325Z,8.33
2022-10-13T15:12:32.902Z,8.27
2022-10-13T15:15:00.361Z,9.50
2022-10-13T15:17:27.844Z,9.77
2022-10-13T15:19:55.354Z,10.00
2022-10-13T15:22:23.310Z,11.83
2022-10-13T15:24:51.141Z,11.03
2022-10-13T15:27:18.604Z,10.47
2022-10-13T15:29:46.137Z,12.93
2022-10-13T15:32:15.035Z,10.47
2022-10-13T15:34:42.490Z,10.23
2022-10-13T15:37:10.025Z,12.03
2022-10-13T15:39:37.689Z,11.57
2022-10-13T15:42:05.779Z,11.87
2022-10-13T15:44:57.321Z,11.47
2022-10-13T15:47:20.909Z,11.93
2022-10-13T15:49:48.635Z,11.63
2022-10-13T15:52:18.431Z,10.13
2022-10-13T15:54:53.256Z,12.20
2022-10-13T15:57:20.766Z,12.77
2022-10-13T15:59:48.459Z,10.47
2022-10-13T16:02:15.981Z,10.50
2022-10-13T16:04:43.599Z,10.87
2022-10-13T16:07:11.065Z,12.00
2022-10-13T16:09:40.556Z,11.50
2022-10-13T16:12:08.070Z,10.63
2022-10-13T16:14:35.518Z,11.97
2022-10-13T16:17:03.155Z,10.03
2022-10-13T16:19:30.621Z,9.80
2022-10-13T16:21:58.197Z,10.57
2022-10-13T16:24:25.699Z,11.50
2022-10-13T16:26:53.209Z,13.70
2022-10-13T16:29:20.694Z,19.67
2022-10-13T16:31:48.198Z,60.40
2022-10-13T16:34:28.065Z,30.77
2022-10-13T16:36:55.968Z,52.57
2022-10-13T16:39:23.483Z,47.63
2022-10-13T16:41:51.514Z,57.60
2022-10-13T16:44:23.058Z,41.37
2022-10-13T16:46:50.671Z,87.53
2022-10-13T16:49:18.131Z,41.07
2022-10-13T16:51:45.681Z,64.73
2022-10-13T16:54:13.170Z,47.03
2022-10-13T16:56:40.746Z,42.23
2022-10-13T16:59:08.463Z,34.33
2022-10-13T17:01:36.045Z,35.03
2022-10-13T17:04:04.705Z,32.17
2022-10-13T17:06:33.030Z,21.50
2022-10-13T17:09:01.293Z,23.20
2022-10-13T17:11:30.230Z,18.60
2022-10-13T17:13:58.507Z,24.27
2022-10-13T17:16:26.679Z,18.47
2022-10-13T17:18:54.737Z,17.47
2022-10-13T17:21:22.624Z,13.80
2022-10-13T17:23:50.200Z,18.03
2022-10-13T17:26:18.740Z,15.17
2022-10-13T17:28:46.363Z,12.07
2022-10-13T17:31:15.098Z,15.27
2022-10-13T17:33:43.314Z,15.93
2022-10-13T17:36:18.161Z,10.00
2022-10-13T17:38:46.369Z,10.17
2022-10-13T17:41:14.226Z,12.43
2022-10-13T17:43:41.935Z,10.93
2022-10-13T17:46:35.194Z,9.90
2022-10-13T17:49:00.282Z,10.83
2022-10-13T17:51:27.981Z,10.53
2022-10-13T17:53:55.755Z,10.73
2022-10-13T17:56:24.796Z,11.13
2022-10-13T17:58:52.380Z,10.37
2022-10-13T18:01:21.786Z,11.27
2022-10-13T18:03:53.330Z,10.40
2022-10-13T18:06:21.421Z,11.00
2022-10-13T18:08:49.343Z,10.27
2022-10-13T18:11:18.161Z,10.50
2022-10-13T18:13:45.979Z,10.63
2022-10-13T18:16:18.001Z,11.07
2022-10-13T18:18:46.410Z,10.53
2022-10-13T18:21:15.496Z,10.60
2022-10-13T18:23:43.117Z,9.83
2022-10-13T18:26:12.813Z,10.93
2022-10-13T18:28:41.251Z,11.20
2022-10-13T18:31:10.251Z,10.13
2022-10-13T18:33:38.819Z,10.13
2022-10-13T18:36:16.847Z,10.07
2022-10-13T18:38:44.467Z,11.33
2022-10-13T18:41:11.945Z,11.10
2022-10-13T18:43:39.637Z,11.23
2022-10-13T18:46:07.277Z,10.77
2022-10-13T18:48:34.855Z,12.40
2022-10-13T18:51:05.199Z,11.13
2022-10-13T18:53:33.011Z,12.40
2022-10-13T18:56:04.641Z,11.80
2022-10-13T18:58:32.489Z,12.93
2022-10-13T19:01:00.926Z,12.67
2022-10-13T19:03:28.525Z,12.27
2022-10-13T19:05:56.129Z,13.87
2022-10-13T19:08:23.796Z,14.20
2022-10-13T19:10:51.360Z,14.73
2022-10-13T19:13:18.928Z,12.83
2022-10-13T19:15:46.689Z,14.10
2022-10-13T19:18:14.582Z,12.23
2022-10-13T19:20:42.211Z,13.37
2022-10-13T19:23:15.076Z,12.70
2022-10-13T19:25:43.105Z,12.27
2022-10-13T19:28:11.075Z,12.47
2022-10-13T19:30:39.104Z,11.47
2022-10-13T19:33:07.402Z,12.07
2022-10-13T19:35:42.836Z,11.20
2022-10-13T19:38:10.533Z,9.60
2022-10-13T19:40:42.407Z,10.03
2022-10-13T19:43:10.387Z,9.90
2022-10-13T19:45:43.873Z,9.13
2022-10-13T19:48:11.392Z,8.73
2022-10-13T19:50:38.882Z,9.37
2022-10-13T19:53:06.530Z,9.27
2022-10-13T19:55:37.895Z,8.37
2022-10-13T19:58:05.421Z,8.87
2022-10-13T20:00:33.264Z,8.73
2022-10-13T20:03:00.940Z,8.73
2022-10-13T20:05:28.970Z,9.23
2022-10-13T20:07:56.686Z,8.50
2022-10-13T20:10:24.264Z,8.70
2022-10-13T20:12:51.848Z,7.20
2022-10-13T20:15:19.372Z,8.23
2022-10-13T20:17:46.943Z,8.17
2022-10-13T20:20:16.808Z,8.17
2022-10-13T20:22:47.756Z,7.63
2022-10-13T20:25:15.592Z,7.90
2022-10-13T20:27:43.195Z,7.80
2022-10-13T20:30:12.961Z,7.17
2022-10-13T20:32:40.607Z,7.80
2022-10-13T20:35:08.439Z,7.83
2022-10-13T20:37:36.390Z,7.17
2022-10-13T20:40:04.071Z,7.73
2022-10-13T20:42:31.670Z,7.80
2022-10-13T20:44:59.181Z,8.67
2022-10-13T20:47:26.915Z,7.43
2022-10-13T20:49:54.616Z,8.53
2022-10-13T20:52:22.124Z,7.53
2022-10-13T20:54:49.589Z,8.20
2022-10-13T20:57:17.119Z,7.40
2022-10-13T20:59:44.790Z,7.50
2022-10-13T21:02:15.046Z,7.83
2022-10-13T21:04:42.819Z,7.40
2022-10-13T21:07:10.362Z,6.93
2022-10-13T21:09:37.875Z,6.57
2022-10-13T21:12:05.455Z,7.33
2022-10-13T21:14:33.017Z,7.53
2022-10-13T21:17:00.720Z,7.03
2022-10-13T21:19:28.310Z,7.33
2022-10-13T21:21:55.789Z,7.70
2022-10-13T21:24:23.320Z,8.10
2022-10-13T21:26:51.130Z,8.07
2022-10-13T21:29:18.611Z,7.53
2022-10-13T21:31:46.083Z,7.43
2022-10-13T21:34:13.662Z,7.87
2022-10-13T21:36:41.125Z,7.97
2022-10-13T21:39:08.777Z,7.67
2022-10-13T21:41:36.501Z,7.87
2022-10-13T21:44:04.592Z,8.13
2022-10-13T21:46:33.181Z,7.80
2022-10-13T21:49:02.419Z,7.93
2022-10-13T21:51:31.434Z,8.37
2022-10-13T21:54:00.400Z,8.67
2022-10-13T21:56:28.525Z,9.07
2022-10-13T21:58:56.142Z,9.07
2022-10-13T22:01:23.853Z,8.00
2022-10-13T22:03:55.333Z,8.87
2022-10-13T22:06:23.462Z,9.53
2022-10-13T22:08:51.781Z,8.57
2022-10-13T22:11:19.389Z,9.33
2022-10-13T22:13:46.923Z,9.00
2022-10-13T22:16:21.869Z,8.90
2022-10-13T22:18:49.504Z,9.30
2022-10-13T22:21:18.946Z,9.63
2022-10-13T22:23:46.676Z,9.40
2022-10-13T22:26:14.731Z,8.87
2022-10-13T22:28:42.312Z,9.20
2022-10-13T22:31:11.520Z,10.33
2022-10-13T22:33:40.064Z,9.93
2022-10-13T22:36:11.397Z,9.97
2022-10-13T22:38:39.132Z,9.73
2022-10-13T22:41:07.525Z,9.80
2022-10-13T22:43:35.218Z,9.60
2022-10-13T22:46:02.807Z,9.60
2022-10-13T22:48:30.340Z,9.77
2022-10-13T22:50:58.014Z,9.60
2022-10-13T22:53:25.482Z,9.10
2022-10-13T22:55:52.928Z,10.27
2022-10-13T22:58:20.430Z,10.33
2022-10-13T23:00:47.890Z,10.67
2022-10-13T23:03:15.507Z,9.87
2022-10-13T23:05:43.614Z,10.27
2022-10-13T23:08:11.064Z,10.33
2022-10-13T23:10:38.680Z,10.23
2022-10-13T23:13:06.177Z,10.30
2022-10-13T23:15:33.712Z,9.93
2022-10-13T23:18:01.276Z,9.97
2022-10-13T23:20:28.715Z,10.13
2022-10-13T23:22:56.259Z,10.20
2022-10-13T23:25:23.746Z,10.30
2022-10-13T23:27:51.288Z,11.00
2022-10-13T23:30:18.715Z,10.77
2022-10-13T23:32:46.232Z,11.07
2022-10-13T23:35:13.737Z,10.80
2022-10-13T23:37:41.274Z,12.27
2022-10-13T23:40:09.077Z,11.60
2022-10-13T23:42:36.571Z,12.50
2022-10-13T23:45:05.270Z,13.27
2022-10-13T23:47:32.842Z,11.97
2022-10-13T23:50:00.344Z,12.10
2022-10-13T23:52:29.835Z,13.33
2022-10-13T23:54:57.345Z,13.57
2022-10-13T23:57:24.968Z,12.90
2022-10-13T23:59:52.459Z,13.10
